sensor_id;sensor_type;location;lat;lon;timestamp;P1;durP1;ratioP1;P2;durP2;ratioP2
80172;SDS011;69497;41.708;44.804;2023-08-31T00:01:10;16.17;;;6.45;;
80172;SDS011;69497;41.708;44.804;2023-08-31T00:03:37;11.38;;;6.32;;
80172;SDS011;69497;41.708;44.804;2023-08-31T00:06:04;12.73;;;7.35;;
80172;SDS011;69497;41.708;44.804;2023-08-31T00:08:33;13.73;;;6.28;;
80172;SDS011;69497;41.708;44.804;2023-08-31T00:11:00;14.48;;;6.20;;
80172;SDS011;69497;41.708;44.804;2023-08-31T00:13:27;11.98;;;6.72;;
80172;SDS011;69497;41.708;44.804;2023-08-31T00:15:54;9.35;;;6.57;;
80172;SDS011;69497;41.708;44.804;2023-08-31T00:18:24;11.43;;;7.07;;
80172;SDS011;69497;41.708;44.804;2023-08-31T00:20:51;13.38;;;6.93;;
80172;SDS011;69497;41.708;44.804;2023-08-31T00:23:17;12.48;;;6.90;;
80172;SDS011;69497;41.708;44.804;2023-08-31T00:25:44;12.52;;;6.38;;
80172;SDS011;69497;41.708;44.804;2023-08-31T00:28:11;10.15;;;7.05;;
80172;SDS011;69497;41.708;44.804;2023-08-31T00:30:37;7.45;;;6.03;;
80172;SDS011;69497;41.708;44.804;2023-08-31T00:33:05;10.95;;;6.40;;
80172;SDS011;69497;41.708;44.804;2023-08-31T00:35:33;11.88;;;6.18;;
80172;SDS011;69497;41.708;44.804;2023-08-31T00:37:59;11.35;;;5.78;;
80172;SDS011;69497;41.708;44.804;2023-08-31T00:40:26;12.40;;;5.80;;
80172;SDS011;69497;41.708;44.804;2023-08-31T00:42:56;10.68;;;5.55;;
80172;SDS011;69497;41.708;44.804;2023-08-31T00:45:22;13.93;;;5.97;;
80172;SDS011;69497;41.708;44.804;2023-08-31T00:47:49;11.55;;;6.22;;
80172;SDS011;69497;41.708;44.804;2023-08-31T00:50:15;9.18;;;6.10;;
80172;SDS011;69497;41.708;44.804;2023-08-31T00:52:42;12.40;;;6.43;;
80172;SDS011;69497;41.708;44.804;2023-08-31T00:55:13;12.77;;;5.60;;
80172;SDS011;69497;41.708;44.804;2023-08-31T00:57:39;12.07;;;5.72;;
80172;SDS011;69497;41.708;44.804;2023-08-31T01:00:06;9.18;;;5.60;;
80172;SDS011;69497;41.708;44.804;2023-08-31T01:02:36;17.30;;;6.15;;
80172;SDS011;69497;41.708;44.804;2023-08-31T01:09:34;10.38;;;5.43;;
80172;SDS011;69497;41.708;44.804;2023-08-31T01:11:59;11.27;;;6.00;;
80172;SDS011;69497;41.708;44.804;2023-08-31T01:14:54;10.70;;;6.22;;
80172;SDS011;69497;41.708;44.804;2023-08-31T01:17:24;13.50;;;5.47;;
80172;SDS011;69497;41.708;44.804;2023-08-31T01:19:54;10.70;;;5.65;;
80172;SDS011;69497;41.708;44.804;2023-08-31T01:22:33;13.55;;;5.97;;
80172;SDS011;69497;41.708;44.804;2023-08-31T01:25:08;8.80;;;5.38;;
80172;SDS011;69497;41.708;44.804;2023-08-31T01:27:35;8.57;;;5.70;;
80172;SDS011;69497;41.708;44.804;2023-08-31T01:30:03;11.82;;;5.05;;
80172;SDS011;69497;41.708;44.804;2023-08-31T01:32:31;8.68;;;5.57;;
80172;SDS011;69497;41.708;44.804;2023-08-31T01:34:58;8.63;;;5.05;;
80172;SDS011;69497;41.708;44.804;2023-08-31T01:37:29;15.10;;;5.28;;
80172;SDS011;69497;41.708;44.804;2023-08-31T01:40:09;9.07;;;6.00;;
80172;SDS011;69497;41.708;44.804;2023-08-31T01:42:48;12.98;;;5.90;;
80172;SDS011;69497;41.708;44.804;2023-08-31T01:45:20;16.77;;;6.10;;
80172;SDS011;69497;41.708;44.804;2023-08-31T01:47:48;9.77;;;5.80;;
80172;SDS011;69497;41.708;44.804;2023-08-31T01:50:14;10.25;;;4.85;;
80172;SDS011;69497;41.708;44.804;2023-08-31T01:52:40;10.85;;;5.30;;
80172;SDS011;69497;41.708;44.804;2023-08-31T01:55:07;12.70;;;5.05;;
80172;SDS011;69497;41.708;44.804;2023-08-31T01:57:33;8.88;;;5.30;;
80172;SDS011;69497;41.708;44.804;2023-08-31T02:00:07;11.85;;;5.03;;
80172;SDS011;69497;41.708;44.804;2023-08-31T02:02:41;9.90;;;5.20;;
80172;SDS011;69497;41.708;44.804;2023-08-31T02:05:08;9.55;;;5.53;;
80172;SDS011;69497;41.708;44.804;2023-08-31T02:07:35;15.35;;;5.10;;
80172;SDS011;69497;41.708;44.804;2023-08-31T02:10:02;12.90;;;5.32;;
80172;SDS011;69497;41.708;44.804;2023-08-31T02:12:32;7.13;;;4.97;;
80172;SDS011;69497;41.708;44.804;2023-08-31T02:14:58;9.77;;;4.80;;
80172;SDS011;69497;41.708;44.804;2023-08-31T02:17:28;8.48;;;4.78;;
80172;SDS011;69497;41.708;44.804;2023-08-31T02:19:54;11.55;;;5.07;;
80172;SDS011;69497;41.708;44.804;2023-08-31T02:22:21;9.75;;;5.20;;
80172;SDS011;69497;41.708;44.804;2023-08-31T02:24:47;15.10;;;5.50;;
80172;SDS011;69497;41.708;44.804;2023-08-31T02:27:13;10.98;;;5.35;;
80172;SDS011;69497;41.708;44.804;2023-08-31T02:29:40;16.73;;;6.00;;
80172;SDS011;69497;41.708;44.804;2023-08-31T02:32:06;12.20;;;6.18;;
80172;SDS011;69497;41.708;44.804;2023-08-31T02:34:33;8.00;;;5.85;;
80172;SDS011;69497;41.708;44.804;2023-08-31T02:36:59;12.93;;;6.38;;
80172;SDS011;69497;41.708;44.804;2023-08-31T02:39:27;14.10;;;5.68;;
80172;SDS011;69497;41.708;44.804;2023-08-31T02:41:54;12.27;;;5.43;;
80172;SDS011;69497;41.708;44.804;2023-08-31T02:44:20;11.48;;;5.80;;
80172;SDS011;69497;41.708;44.804;2023-08-31T02:46:46;14.52;;;5.68;;
80172;SDS011;69497;41.708;44.804;2023-08-31T02:49:12;14.15;;;5.80;;
80172;SDS011;69497;41.708;44.804;2023-08-31T02:51:40;12.43;;;5.32;;
80172;SDS011;69497;41.708;44.804;2023-08-31T02:54:07;14.77;;;5.53;;
80172;SDS011;69497;41.708;44.804;2023-08-31T02:56:33;11.52;;;4.93;;
80172;SDS011;69497;41.708;44.804;2023-08-31T02:58:59;12.15;;;5.72;;
80172;SDS011;69497;41.708;44.804;2023-08-31T03:01:25;14.10;;;5.45;;
80172;SDS011;69497;41.708;44.804;2023-08-31T03:03:52;13.25;;;5.22;;
80172;SDS011;69497;41.708;44.804;2023-08-31T03:06:20;10.30;;;5.40;;
80172;SDS011;69497;41.708;44.804;2023-08-31T03:08:46;9.65;;;5.50;;
80172;SDS011;69497;41.708;44.804;2023-08-31T03:11:13;10.98;;;5.32;;
80172;SDS011;69497;41.708;44.804;2023-08-31T03:13:42;8.85;;;5.00;;
80172;SDS011;69497;41.708;44.804;2023-08-31T03:16:08;9.25;;;4.78;;
80172;SDS011;69497;41.708;44.804;2023-08-31T03:18:34;7.15;;;5.60;;
80172;SDS011;69497;41.708;44.804;2023-08-31T03:21:00;13.93;;;5.57;;
80172;SDS011;69497;41.708;44.804;2023-08-31T03:23:27;14.85;;;5.18;;
80172;SDS011;69497;41.708;44.804;2023-08-31T03:25:56;13.82;;;5.38;;
80172;SDS011;69497;41.708;44.804;2023-08-31T03:28:25;8.90;;;4.60;;
80172;SDS011;69497;41.708;44.804;2023-08-31T03:30:55;10.05;;;5.50;;
80172;SDS011;69497;41.708;44.804;2023-08-31T03:33:22;12.48;;;5.35;;
80172;SDS011;69497;41.708;44.804;2023-08-31T03:35:48;11.18;;;4.90;;
80172;SDS011;69497;41.708;44.804;2023-08-31T03:38:15;11.85;;;4.93;;
80172;SDS011;69497;41.708;44.804;2023-08-31T03:40:41;12.00;;;5.30;;
80172;SDS011;69497;41.708;44.804;2023-08-31T03:43:07;9.25;;;4.90;;
80172;SDS011;69497;41.708;44.804;2023-08-31T03:45:33;13.88;;;4.88;;
80172;SDS011;69497;41.708;44.804;2023-08-31T03:48:01;10.02;;;4.80;;
80172;SDS011;69497;41.708;44.804;2023-08-31T03:50:27;12.48;;;5.18;;
80172;SDS011;69497;41.708;44.804;2023-08-31T03:52:54;19.67;;;5.60;;
80172;SDS011;69497;41.708;44.804;2023-08-31T03:55:20;10.57;;;5.10;;
80172;SDS011;69497;41.708;44.804;2023-08-31T03:57:46;10.85;;;5.53;;
80172;SDS011;69497;41.708;44.804;2023-08-31T04:00:16;12.85;;;5.75;;
80172;SDS011;69497;41.708;44.804;2023-08-31T04:02:42;9.45;;;4.93;;
80172;SDS011;69497;41.708;44.804;2023-08-31T04:05:12;11.82;;;5.13;;
80172;SDS011;69497;41.708;44.804;2023-08-31T04:07:42;7.93;;;4.90;;
80172;SDS011;69497;41.708;44.804;2023-08-31T04:10:08;13.20;;;5.28;;
80172;SDS011;69497;41.708;44.804;2023-08-31T04:12:34;12.43;;;4.75;;
80172;SDS011;69497;41.708;44.804;2023-08-31T04:15:00;10.90;;;5.22;;
80172;SDS011;69497;41.708;44.804;2023-08-31T04:17:29;13.82;;;5.15;;
80172;SDS011;69497;41.708;44.804;2023-08-31T04:19:55;13.25;;;5.32;;
80172;SDS011;69497;41.708;44.804;2023-08-31T04:22:21;11.90;;;5.40;;
80172;SDS011;69497;41.708;44.804;2023-08-31T04:24:47;11.82;;;5.30;;
80172;SDS011;69497;41.708;44.804;2023-08-31T04:27:13;11.55;;;5.18;;
80172;SDS011;69497;41.708;44.804;2023-08-31T04:29:40;10.18;;;5.47;;
80172;SDS011;69497;41.708;44.804;2023-08-31T04:32:06;11.30;;;5.40;;
80172;SDS011;69497;41.708;44.804;2023-08-31T04:34:32;11.10;;;4.95;;
80172;SDS011;69497;41.708;44.804;2023-08-31T04:36:58;13.45;;;5.90;;
80172;SDS011;69497;41.708;44.804;2023-08-31T04:39:24;16.63;;;6.97;;
80172;SDS011;69497;41.708;44.804;2023-08-31T04:41:51;8.45;;;5.13;;
80172;SDS011;69497;41.708;44.804;2023-08-31T04:44:17;11.85;;;5.22;;
80172;SDS011;69497;41.708;44.804;2023-08-31T04:46:43;10.57;;;5.00;;
80172;SDS011;69497;41.708;44.804;2023-08-31T04:49:09;10.75;;;5.50;;
80172;SDS011;69497;41.708;44.804;2023-08-31T04:51:36;9.95;;;5.38;;
80172;SDS011;69497;41.708;44.804;2023-08-31T04:54:07;13.15;;;5.72;;
80172;SDS011;69497;41.708;44.804;2023-08-31T05:00:52;10.02;;;5.65;;
80172;SDS011;69497;41.708;44.804;2023-08-31T05:03:18;9.75;;;5.68;;
80172;SDS011;69497;41.708;44.804;2023-08-31T05:05:44;7.45;;;5.13;;
80172;SDS011;69497;41.708;44.804;2023-08-31T05:08:10;10.73;;;5.85;;
80172;SDS011;69497;41.708;44.804;2023-08-31T05:15:02;11.52;;;5.57;;
80172;SDS011;69497;41.708;44.804;2023-08-31T05:17:29;12.32;;;5.45;;
80172;SDS011;69497;41.708;44.804;2023-08-31T05:19:56;11.95;;;4.88;;
80172;SDS011;69497;41.708;44.804;2023-08-31T05:22:22;12.65;;;5.63;;
80172;SDS011;69497;41.708;44.804;2023-08-31T05:24:48;12.00;;;4.45;;
80172;SDS011;69497;41.708;44.804;2023-08-31T05:27:15;11.48;;;5.30;;
80172;SDS011;69497;41.708;44.804;2023-08-31T05:29:41;11.55;;;4.30;;
80172;SDS011;69497;41.708;44.804;2023-08-31T05:32:07;11.50;;;4.82;;
80172;SDS011;69497;41.708;44.804;2023-08-31T05:34:33;12.18;;;3.90;;
80172;SDS011;69497;41.708;44.804;2023-08-31T05:37:03;10.18;;;4.55;;
80172;SDS011;69497;41.708;44.804;2023-08-31T05:39:33;12.88;;;4.50;;
80172;SDS011;69497;41.708;44.804;2023-08-31T05:46:17;11.02;;;4.15;;
80172;SDS011;69497;41.708;44.804;2023-08-31T05:48:43;9.55;;;4.30;;
80172;SDS011;69497;41.708;44.804;2023-08-31T05:55:27;14.80;;;5.43;;
80172;SDS011;69497;41.708;44.804;2023-08-31T05:57:53;13.77;;;4.63;;
80172;SDS011;69497;41.708;44.804;2023-08-31T06:00:19;14.68;;;4.72;;
80172;SDS011;69497;41.708;44.804;2023-08-31T06:02:45;16.27;;;4.63;;
80172;SDS011;69497;41.708;44.804;2023-08-31T06:05:12;14.27;;;4.10;;
80172;SDS011;69497;41.708;44.804;2023-08-31T06:07:38;9.10;;;4.28;;
80172;SDS011;69497;41.708;44.804;2023-08-31T06:10:05;8.45;;;4.03;;
80172;SDS011;69497;41.708;44.804;2023-08-31T06:19:18;8.13;;;4.30;;
80172;SDS011;69497;41.708;44.804;2023-08-31T06:21:44;10.77;;;4.63;;
80172;SDS011;69497;41.708;44.804;2023-08-31T06:24:10;8.63;;;4.25;;
80172;SDS011;69497;41.708;44.804;2023-08-31T06:26:38;7.15;;;3.88;;
80172;SDS011;69497;41.708;44.804;2023-08-31T06:33:16;6.60;;;3.58;;
80172;SDS011;69497;41.708;44.804;2023-08-31T06:35:46;9.23;;;4.15;;
80172;SDS011;69497;41.708;44.804;2023-08-31T06:38:17;7.93;;;3.97;;
80172;SDS011;69497;41.708;44.804;2023-08-31T06:40:44;8.93;;;3.60;;
80172;SDS011;69497;41.708;44.804;2023-08-31T06:43:10;15.57;;;4.68;;
80172;SDS011;69497;41.708;44.804;2023-08-31T06:45:36;10.95;;;4.30;;
80172;SDS011;69497;41.708;44.804;2023-08-31T06:48:02;7.78;;;3.97;;
80172;SDS011;69497;41.708;44.804;2023-08-31T06:50:29;7.25;;;4.32;;
80172;SDS011;69497;41.708;44.804;2023-08-31T06:52:55;8.25;;;4.05;;
80172;SDS011;69497;41.708;44.804;2023-08-31T06:55:21;11.25;;;3.97;;
80172;SDS011;69497;41.708;44.804;2023-08-31T06:57:47;10.45;;;3.85;;
80172;SDS011;69497;41.708;44.804;2023-08-31T07:08:55;10.00;;;4.53;;
80172;SDS011;69497;41.708;44.804;2023-08-31T07:15:45;11.07;;;4.63;;
80172;SDS011;69497;41.708;44.804;2023-08-31T07:18:13;11.77;;;4.70;;
80172;SDS011;69497;41.708;44.804;2023-08-31T07:20:40;11.15;;;3.72;;
80172;SDS011;69497;41.708;44.804;2023-08-31T07:27:24;8.88;;;4.10;;
80172;SDS011;69497;41.708;44.804;2023-08-31T07:29:53;9.52;;;4.63;;
80172;SDS011;69497;41.708;44.804;2023-08-31T07:36:45;10.30;;;4.55;;
80172;SDS011;69497;41.708;44.804;2023-08-31T07:39:11;9.43;;;4.13;;
80172;SDS011;69497;41.708;44.804;2023-08-31T07:41:37;11.02;;;4.18;;
80172;SDS011;69497;41.708;44.804;2023-08-31T07:44:03;8.52;;;4.28;;
80172;SDS011;69497;41.708;44.804;2023-08-31T07:46:30;11.95;;;4.85;;
80172;SDS011;69497;41.708;44.804;2023-08-31T07:48:56;8.15;;;4.10;;
80172;SDS011;69497;41.708;44.804;2023-08-31T07:51:22;11.18;;;4.03;;
80172;SDS011;69497;41.708;44.804;2023-08-31T07:53:49;8.93;;;4.75;;
80172;SDS011;69497;41.708;44.804;2023-08-31T08:00:40;13.25;;;5.22;;
80172;SDS011;69497;41.708;44.804;2023-08-31T08:03:06;6.70;;;4.32;;
80172;SDS011;69497;41.708;44.804;2023-08-31T08:05:33;11.65;;;4.28;;
80172;SDS011;69497;41.708;44.804;2023-08-31T08:07:59;10.10;;;4.93;;
80172;SDS011;69497;41.708;44.804;2023-08-31T08:10:28;12.20;;;4.45;;
80172;SDS011;69497;41.708;44.804;2023-08-31T08:12:54;11.15;;;4.43;;
80172;SDS011;69497;41.708;44.804;2023-08-31T08:15:21;8.32;;;4.38;;
80172;SDS011;69497;41.708;44.804;2023-08-31T08:17:48;11.05;;;4.28;;
80172;SDS011;69497;41.708;44.804;2023-08-31T08:20:14;9.95;;;4.53;;
80172;SDS011;69497;41.708;44.804;2023-08-31T08:26:58;10.55;;;4.45;;
80172;SDS011;69497;41.708;44.804;2023-08-31T08:29:24;9.43;;;4.18;;
80172;SDS011;69497;41.708;44.804;2023-08-31T08:31:50;11.80;;;4.20;;
80172;SDS011;69497;41.708;44.804;2023-08-31T08:34:16;11.02;;;4.65;;
80172;SDS011;69497;41.708;44.804;2023-08-31T08:36:42;9.45;;;4.50;;
80172;SDS011;69497;41.708;44.804;2023-08-31T08:39:08;7.00;;;4.20;;
80172;SDS011;69497;41.708;44.804;2023-08-31T08:44:30;7.53;;;4.50;;
80172;SDS011;69497;41.708;44.804;2023-08-31T08:46:59;19.75;;;5.35;;
80172;SDS011;69497;41.708;44.804;2023-08-31T08:49:26;10.38;;;4.75;;
80172;SDS011;69497;41.708;44.804;2023-08-31T08:51:54;10.93;;;5.00;;
80172;SDS011;69497;41.708;44.804;2023-08-31T08:54:37;8.10;;;4.40;;
80172;SDS011;69497;41.708;44.804;2023-08-31T08:57:04;9.02;;;4.82;;
80172;SDS011;69497;41.708;44.804;2023-08-31T08:59:30;10.55;;;5.15;;
80172;SDS011;69497;41.708;44.804;2023-08-31T09:06:22;10.00;;;5.07;;
80172;SDS011;69497;41.708;44.804;2023-08-31T09:08:54;10.15;;;4.30;;
